sensor_id;sensor_type;location;lat;lon;timestamp;pressure;altitude;pressure_sealevel;temperature;humidity
9893;BME280;4985;49.092;8.542;2022-08-21T00:00:53;99408.47;;;24.87;38.10
9893;BME280;4985;49.092;8.542;2022-08-21T00:03:20;99408.69;;;24.81;38.06
9893;BME280;4985;49.092;8.542;2022-08-21T00:05:48;99413.97;;;24.49;38.50
9893;BME280;4985;49.092;8.542;2022-08-21T00:08:15;99410.03;;;24.18;39.11
9893;BME280;4985;49.092;8.542;2022-08-21T00:10:43;99408.03;;;24.08;39.75
9893;BME280;4985;49.092;8.542;2022-08-21T00:13:10;99410.53;;;24.15;39.39
9893;BME280;4985;49.092;8.542;2022-08-21T00:15:40;99408.81;;;24.25;39.03
9893;BME280;4985;49.092;8.542;2022-08-21T00:18:08;99403.25;;;24.32;39.04
9893;BME280;4985;49.092;8.542;2022-08-21T00:20:36;99407.91;;;24.20;39.23
9893;BME280;4985;49.092;8.542;2022-08-21T00:23:04;99395.62;;;24.24;38.62
9893;BME280;4985;49.092;8.542;2022-08-21T00:25:31;99404.16;;;24.21;38.36
9893;BME280;4985;49.092;8.542;2022-08-21T00:27:58;99401.22;;;23.84;39.28
9893;BME280;4985;49.092;8.542;2022-08-21T00:30:26;99402.09;;;23.89;39.24
9893;BME280;4985;49.092;8.542;2022-08-21T00:32:55;99395.91;;;23.89;39.22
9893;BME280;4985;49.092;8.542;2022-08-21T00:35:23;99387.53;;;23.85;39.21
9893;BME280;4985;49.092;8.542;2022-08-21T00:37:50;99391.22;;;23.79;39.33
9893;BME280;4985;49.092;8.542;2022-08-21T00:40:20;99381.59;;;23.83;39.28
9893;BME280;4985;49.092;8.542;2022-08-21T00:42:47;99388.69;;;23.72;39.41
9893;BME280;4985;49.092;8.542;2022-08-21T00:45:16;99391.87;;;23.69;39.50
9893;BME280;4985;49.092;8.542;2022-08-21T00:47:42;99383.72;;;23.81;39.22
9893;BME280;4985;49.092;8.542;2022-08-21T00:50:12;99373.63;;;23.71;39.24
9893;BME280;4985;49.092;8.542;2022-08-21T00:52:39;99383.41;;;23.61;39.55
9893;BME280;4985;49.092;8.542;2022-08-21T00:55:08;99377.88;;;23.67;39.29
9893;BME280;4985;49.092;8.542;2022-08-21T00:57:39;99370.09;;;23.54;39.59
9893;BME280;4985;49.092;8.542;2022-08-21T01:00:10;99375.41;;;23.49;39.77
9893;BME280;4985;49.092;8.542;2022-08-21T01:02:38;99373.59;;;23.54;39.50
9893;BME280;4985;49.092;8.542;2022-08-21T01:05:05;99375.72;;;23.52;39.46
9893;BME280;4985;49.092;8.542;2022-08-21T01:07:33;99372.97;;;23.31;39.95
9893;BME280;4985;49.092;8.542;2022-08-21T01:10:00;99373.53;;;23.33;39.91
9893;BME280;4985;49.092;8.542;2022-08-21T01:12:27;99387.12;;;23.26;40.05
9893;BME280;4985;49.092;8.542;2022-08-21T01:14:54;99380.28;;;23.18;40.26
9893;BME280;4985;49.092;8.542;2022-08-21T01:17:21;99381.59;;;23.16;40.38
9893;BME280;4985;49.092;8.542;2022-08-21T01:19:48;99384.28;;;23.16;40.33
9893;BME280;4985;49.092;8.542;2022-08-21T01:22:15;99383.34;;;23.10;40.43
9893;BME280;4985;49.092;8.542;2022-08-21T01:24:42;99380.41;;;22.95;40.64
9893;BME280;4985;49.092;8.542;2022-08-21T01:27:09;99372.84;;;22.92;40.66
9893;BME280;4985;49.092;8.542;2022-08-21T01:29:38;99380.00;;;22.86;40.72
9893;BME280;4985;49.092;8.542;2022-08-21T01:32:13;99379.62;;;22.83;40.78
9893;BME280;4985;49.092;8.542;2022-08-21T01:34:44;99368.13;;;22.71;40.88
9893;BME280;4985;49.092;8.542;2022-08-21T01:37:11;99384.81;;;22.73;40.88
9893;BME280;4985;49.092;8.542;2022-08-21T01:39:40;99380.62;;;22.77;40.81
9893;BME280;4985;49.092;8.542;2022-08-21T01:42:07;99381.88;;;22.86;40.53
9893;BME280;4985;49.092;8.542;2022-08-21T01:44:33;99376.75;;;22.84;40.52
9893;BME280;4985;49.092;8.542;2022-08-21T01:47:04;99378.19;;;22.63;40.93
9893;BME280;4985;49.092;8.542;2022-08-21T01:49:32;99382.63;;;22.70;40.81
9893;BME280;4985;49.092;8.542;2022-08-21T01:51:59;99383.56;;;22.63;40.77
9893;BME280;4985;49.092;8.542;2022-08-21T01:54:26;99385.00;;;22.54;40.89
9893;BME280;4985;49.092;8.542;2022-08-21T01:56:54;99386.44;;;22.45;41.10
9893;BME280;4985;49.092;8.542;2022-08-21T01:59:22;99384.69;;;22.39;41.26
9893;BME280;4985;49.092;8.542;2022-08-21T02:01:49;99383.31;;;22.36;41.30
9893;BME280;4985;49.092;8.542;2022-08-21T02:04:17;99383.91;;;22.27;41.47
9893;BME280;4985;49.092;8.542;2022-08-21T02:06:43;99374.00;;;22.27;41.47
9893;BME280;4985;49.092;8.542;2022-08-21T02:09:11;99372.59;;;22.25;41.62
9893;BME280;4985;49.092;8.542;2022-08-21T02:11:39;99380.53;;;22.20;41.71
9893;BME280;4985;49.092;8.542;2022-08-21T02:14:08;99384.91;;;22.09;41.96
9893;BME280;4985;49.092;8.542;2022-08-21T02:16:36;99377.19;;;22.13;41.78
9893;BME280;4985;49.092;8.542;2022-08-21T02:19:04;99380.78;;;22.06;41.96
9893;BME280;4985;49.092;8.542;2022-08-21T02:21:30;99369.94;;;22.01;42.16
9893;BME280;4985;49.092;8.542;2022-08-21T02:23:57;99370.50;;;22.03;42.15
9893;BME280;4985;49.092;8.542;2022-08-21T02:26:24;99372.75;;;22.06;42.02
9893;BME280;4985;49.092;8.542;2022-08-21T02:28:50;99367.03;;;21.91;42.28
9893;BME280;4985;49.092;8.542;2022-08-21T02:31:19;99363.56;;;21.79;42.55
9893;BME280;4985;49.092;8.542;2022-08-21T02:33:45;99364.25;;;21.86;42.42
9893;BME280;4985;49.092;8.542;2022-08-21T02:36:13;99361.09;;;21.89;42.38
9893;BME280;4985;49.092;8.542;2022-08-21T02:38:41;99360.28;;;21.89;42.34
9893;BME280;4985;49.092;8.542;2022-08-21T02:41:11;99367.63;;;21.93;42.28
9893;BME280;4985;49.092;8.542;2022-08-21T02:43:38;99355.50;;;21.91;42.25
9893;BME280;4985;49.092;8.542;2022-08-21T02:46:09;99360.06;;;21.90;42.29
9893;BME280;4985;49.092;8.542;2022-08-21T02:48:38;99365.88;;;21.87;42.27
9893;BME280;4985;49.092;8.542;2022-08-21T02:51:07;99363.31;;;21.80;42.42
9893;BME280;4985;49.092;8.542;2022-08-21T02:53:34;99364.59;;;21.78;42.50
9893;BME280;4985;49.092;8.542;2022-08-21T02:56:04;99358.66;;;21.76;42.54
9893;BME280;4985;49.092;8.542;2022-08-21T02:58:35;99368.44;;;21.82;42.42
9893;BME280;4985;49.092;8.542;2022-08-21T03:01:03;99360.16;;;21.72;42.56
9893;BME280;4985;49.092;8.542;2022-08-21T03:03:29;99368.09;;;21.67;42.66
9893;BME280;4985;49.092;8.542;2022-08-21T03:05:57;99359.94;;;21.62;42.75
9893;BME280;4985;49.092;8.542;2022-08-21T03:08:24;99365.09;;;21.63;42.88
9893;BME280;4985;49.092;8.542;2022-08-21T03:10:52;99362.75;;;21.67;42.81
9893;BME280;4985;49.092;8.542;2022-08-21T03:13:19;99359.34;;;21.60;43.07
9893;BME280;4985;49.092;8.542;2022-08-21T03:15:46;99361.56;;;21.63;43.03
9893;BME280;4985;49.092;8.542;2022-08-21T03:18:14;99370.22;;;21.65;42.99
9893;BME280;4985;49.092;8.542;2022-08-21T03:20:41;99365.53;;;21.72;42.73
9893;BME280;4985;49.092;8.542;2022-08-21T03:23:12;99357.72;;;21.59;42.90
9893;BME280;4985;49.092;8.542;2022-08-21T03:25:39;99362.84;;;21.60;42.77
9893;BME280;4985;49.092;8.542;2022-08-21T03:28:09;99352.38;;;21.47;42.88
9893;BME280;4985;49.092;8.542;2022-08-21T03:30:36;99354.13;;;21.41;43.10
9893;BME280;4985;49.092;8.542;2022-08-21T03:33:02;99357.03;;;21.51;42.94
9893;BME280;4985;49.092;8.542;2022-08-21T03:35:30;99354.72;;;21.43;43.05
9893;BME280;4985;49.092;8.542;2022-08-21T03:37:56;99352.13;;;21.37;43.24
9893;BME280;4985;49.092;8.542;2022-08-21T03:40:24;99353.03;;;21.19;43.62
9893;BME280;4985;49.092;8.542;2022-08-21T03:42:51;99355.94;;;21.29;43.42
9893;BME280;4985;49.092;8.542;2022-08-21T03:45:19;99361.69;;;21.33;43.34
9893;BME280;4985;49.092;8.542;2022-08-21T03:47:54;99360.34;;;21.23;43.56
9893;BME280;4985;49.092;8.542;2022-08-21T03:50:23;99356.03;;;21.22;43.67
9893;BME280;4985;49.092;8.542;2022-08-21T03:52:49;99360.06;;;21.32;43.62
9893;BME280;4985;49.092;8.542;2022-08-21T03:55:16;99366.41;;;21.19;43.84
9893;BME280;4985;49.092;8.542;2022-08-21T03:57:44;99362.53;;;21.15;43.98
9893;BME280;4985;49.092;8.542;2022-08-21T04:00:12;99365.69;;;21.12;44.08
9893;BME280;4985;49.092;8.542;2022-08-21T04:02:39;99361.22;;;21.06;44.23
9893;BME280;4985;49.092;8.542;2022-08-21T04:05:06;99365.78;;;21.05;44.15
9893;BME280;4985;49.092;8.542;2022-08-21T04:07:33;99367.06;;;21.03;44.08
9893;BME280;4985;49.092;8.542;2022-08-21T04:10:00;99375.66;;;21.05;43.95
9893;BME280;4985;49.092;8.542;2022-08-21T04:12:27;99368.69;;;21.04;43.90
9893;BME280;4985;49.092;8.542;2022-08-21T04:14:55;99380.31;;;20.98;43.99
9893;BME280;4985;49.092;8.542;2022-08-21T04:17:21;99379.12;;;20.93;44.00
9893;BME280;4985;49.092;8.542;2022-08-21T04:19:48;99383.78;;;20.86;44.12
9893;BME280;4985;49.092;8.542;2022-08-21T04:22:15;99376.78;;;20.85;44.15
9893;BME280;4985;49.092;8.542;2022-08-21T04:24:42;99377.44;;;20.81;44.22
9893;BME280;4985;49.092;8.542;2022-08-21T04:27:09;99383.25;;;20.78;44.14
9893;BME280;4985;49.092;8.542;2022-08-21T04:29:36;99385.13;;;20.77;44.15
9893;BME280;4985;49.092;8.542;2022-08-21T04:32:04;99388.94;;;20.70;44.36
9893;BME280;4985;49.092;8.542;2022-08-21T04:34:31;99393.91;;;20.66;44.40
9893;BME280;4985;49.092;8.542;2022-08-21T04:36:58;99396.63;;;20.78;44.10
9893;BME280;4985;49.092;8.542;2022-08-21T04:39:24;99388.94;;;20.70;44.28
9893;BME280;4985;49.092;8.542;2022-08-21T04:41:51;99393.41;;;20.57;44.59
9893;BME280;4985;49.092;8.542;2022-08-21T04:44:18;99400.91;;;20.49;44.91
9893;BME280;4985;49.092;8.542;2022-08-21T04:46:44;99397.06;;;20.45;45.11
9893;BME280;4985;49.092;8.542;2022-08-21T04:49:12;99402.41;;;20.45;45.20
9893;BME280;4985;49.092;8.542;2022-08-21T04:51:39;99401.94;;;20.29;45.56
9893;BME280;4985;49.092;8.542;2022-08-21T04:54:09;99411.31;;;20.20;45.88
9893;BME280;4985;49.092;8.542;2022-08-21T04:56:40;99409.91;;;20.18;46.09
9893;BME280;4985;49.092;8.542;2022-08-21T04:59:17;99411.12;;;20.15;46.38
9893;BME280;4985;49.092;8.542;2022-08-21T05:01:48;99420.81;;;20.16;46.53
9893;BME280;4985;49.092;8.542;2022-08-21T05:04:18;99413.81;;;20.15;46.60
9893;BME280;4985;49.092;8.542;2022-08-21T05:06:48;99419.47;;;20.25;46.45
9893;BME280;4985;49.092;8.542;2022-08-21T05:09:18;99418.28;;;20.21;46.55
9893;BME280;4985;49.092;8.542;2022-08-21T05:11:46;99419.78;;;20.17;46.67
9893;BME280;4985;49.092;8.542;2022-08-21T05:14:13;99429.47;;;20.12;46.73
9893;BME280;4985;49.092;8.542;2022-08-21T05:16:40;99425.03;;;20.24;46.46
9893;BME280;4985;49.092;8.542;2022-08-21T05:19:08;99423.25;;;20.18;46.53
9893;BME280;4985;49.092;8.542;2022-08-21T05:21:38;99429.44;;;20.18;46.54
9893;BME280;4985;49.092;8.542;2022-08-21T05:24:05;99428.38;;;20.19;46.57
9893;BME280;4985;49.092;8.542;2022-08-21T05:26:32;99426.06;;;20.23;46.42
9893;BME280;4985;49.092;8.542;2022-08-21T05:28:59;99428.97;;;20.21;46.41
9893;BME280;4985;49.092;8.542;2022-08-21T05:31:26;99434.09;;;20.23;46.44
9893;BME280;4985;49.092;8.542;2022-08-21T05:33:53;99435.38;;;20.39;46.26
9893;BME280;4985;49.092;8.542;2022-08-21T05:36:19;99432.88;;;20.44;46.13
9893;BME280;4985;49.092;8.542;2022-08-21T05:38:47;99441.03;;;20.49;45.86
9893;BME280;4985;49.092;8.542;2022-08-21T05:41:14;99437.69;;;20.53;45.78
9893;BME280;4985;49.092;8.542;2022-08-21T05:43:40;99433.53;;;20.57;45.65
9893;BME280;4985;49.092;8.542;2022-08-21T05:46:08;99423.19;;;20.61;45.58
9893;BME280;4985;49.092;8.542;2022-08-21T05:48:35;99423.56;;;20.64;45.48
9893;BME280;4985;49.092;8.542;2022-08-21T05:51:05;99430.91;;;20.69;45.37
9893;BME280;4985;49.092;8.542;2022-08-21T05:53:33;99434.97;;;20.72;45.41
9893;BME280;4985;49.092;8.542;2022-08-21T05:56:01;99433.75;;;20.74;45.28
9893;BME280;4985;49.092;8.542;2022-08-21T05:58:30;99435.13;;;20.77;45.25
9893;BME280;4985;49.092;8.542;2022-08-21T06:00:57;99431.19;;;20.79;45.22
9893;BME280;4985;49.092;8.542;2022-08-21T06:03:25;99428.28;;;20.81;45.17
9893;BME280;4985;49.092;8.542;2022-08-21T06:05:52;99432.16;;;20.85;45.18
9893;BME280;4985;49.092;8.542;2022-08-21T06:08:20;99428.44;;;20.86;45.14
9893;BME280;4985;49.092;8.542;2022-08-21T06:10:48;99425.31;;;20.89;45.12
9893;BME280;4985;49.092;8.542;2022-08-21T06:13:19;99418.69;;;20.91;45.08
9893;BME280;4985;49.092;8.542;2022-08-21T06:15:45;99424.59;;;20.93;45.04
9893;BME280;4985;49.092;8.542;2022-08-21T06:18:12;99412.88;;;20.94;45.13
9893;BME280;4985;49.092;8.542;2022-08-21T06:20:39;99419.88;;;20.96;45.06
9893;BME280;4985;49.092;8.542;2022-08-21T06:23:07;99418.59;;;20.98;45.12
9893;BME280;4985;49.092;8.542;2022-08-21T06:25:34;99419.19;;;21.00;45.02
9893;BME280;4985;49.092;8.542;2022-08-21T06:28:02;99421.41;;;21.03;45.02
9893;BME280;4985;49.092;8.542;2022-08-21T06:30:30;99421.16;;;21.05;45.05
9893;BME280;4985;49.092;8.542;2022-08-21T06:32:57;99420.94;;;21.06;45.02
9893;BME280;4985;49.092;8.542;2022-08-21T06:35:24;99423.41;;;21.08;44.98
9893;BME280;4985;49.092;8.542;2022-08-21T06:37:51;99425.84;;;21.09;45.11
9893;BME280;4985;49.092;8.542;2022-08-21T06:40:17;99421.91;;;21.12;45.03
9893;BME280;4985;49.092;8.542;2022-08-21T06:42:44;99427.00;;;21.13;45.02
9893;BME280;4985;49.092;8.542;2022-08-21T06:45:11;99425.72;;;21.16;45.10
9893;BME280;4985;49.092;8.542;2022-08-21T06:47:39;99428.41;;;21.16;45.12
9893;BME280;4985;49.092;8.542;2022-08-21T06:50:06;99426.34;;;21.18;45.08
9893;BME280;4985;49.092;8.542;2022-08-21T06:52:34;99425.31;;;21.19;45.04
9893;BME280;4985;49.092;8.542;2022-08-21T06:55:00;99423.22;;;21.21;45.09
9893;BME280;4985;49.092;8.542;2022-08-21T06:57:27;99419.47;;;21.22;45.06
9893;BME280;4985;49.092;8.542;2022-08-21T06:59:53;99428.09;;;21.24;45.14
9893;BME280;4985;49.092;8.542;2022-08-21T07:02:21;99424.38;;;21.25;45.05
9893;BME280;4985;49.092;8.542;2022-08-21T07:04:49;99426.03;;;21.26;45.09
9893;BME280;4985;49.092;8.542;2022-08-21T07:07:16;99425.78;;;21.28;45.14
9893;BME280;4985;49.092;8.542;2022-08-21T07:09:42;99420.44;;;21.28;45.15
9893;BME280;4985;49.092;8.542;2022-08-21T07:12:09;99421.87;;;21.30;45.12
9893;BME280;4985;49.092;8.542;2022-08-21T07:14:36;99423.50;;;21.31;45.00
9893;BME280;4985;49.092;8.542;2022-08-21T07:17:03;99432.13;;;21.33;44.99
9893;BME280;4985;49.092;8.542;2022-08-21T07:19:29;99425.47;;;21.36;45.09
9893;BME280;4985;49.092;8.542;2022-08-21T07:22:00;99430.00;;;21.35;44.99
9893;BME280;4985;49.092;8.542;2022-08-21T07:24:27;99435.94;;;21.37;45.03
9893;BME280;4985;49.092;8.542;2022-08-21T07:26:54;99425.00;;;21.39;45.12
9893;BME280;4985;49.092;8.542;2022-08-21T07:29:21;99419.66;;;21.39;44.99
9893;BME280;4985;49.092;8.542;2022-08-21T07:31:47;99428.50;;;21.39;44.99
9893;BME280;4985;49.092;8.542;2022-08-21T07:34:14;99419.22;;;21.42;44.86
9893;BME280;4985;49.092;8.542;2022-08-21T07:36:40;99414.66;;;21.42;44.91
9893;BME280;4985;49.092;8.542;2022-08-21T07:39:09;99415.50;;;21.43;45.01
9893;BME280;4985;49.092;8.542;2022-08-21T07:41:35;99416.88;;;21.45;44.83
9893;BME280;4985;49.092;8.542;2022-08-21T07:44:02;99418.50;;;21.46;44.76
9893;BME280;4985;49.092;8.542;2022-08-21T07:46:29;99418.50;;;21.46;44.91
9893;BME280;4985;49.092;8.542;2022-08-21T07:48:56;99411.06;;;21.48;44.83
9893;BME280;4985;49.092;8.542;2022-08-21T07:51:25;99411.88;;;21.49;44.83
9893;BME280;4985;49.092;8.542;2022-08-21T07:53:54;99414.53;;;21.49;44.89
9893;BME280;4985;49.092;8.542;2022-08-21T07:56:22;99415.13;;;21.51;44.73
9893;BME280;4985;49.092;8.542;2022-08-21T07:58:49;99406.28;;;21.50;44.83
9893;BME280;4985;49.092;8.542;2022-08-21T08:01:16;99414.91;;;21.53;44.83
9893;BME280;4985;49.092;8.542;2022-08-21T08:03:43;99415.75;;;21.53;44.93
9893;BME280;4985;49.092;8.542;2022-08-21T08:06:10;99412.00;;;21.54;44.84
9893;BME280;4985;49.092;8.542;2022-08-21T08:08:37;99404.78;;;21.55;44.85
9893;BME280;4985;49.092;8.542;2022-08-21T08:11:04;99409.09;;;21.56;44.83
9893;BME280;4985;49.092;8.542;2022-08-21T08:13:38;99406.19;;;21.57;44.89
9893;BME280;4985;49.092;8.542;2022-08-21T08:16:05;99408.63;;;21.59;44.83
9893;BME280;4985;49.092;8.542;2022-08-21T08:18:32;99407.56;;;21.60;44.84
9893;BME280;4985;49.092;8.542;2022-08-21T08:20:58;99407.34;;;21.61;44.80
9893;BME280;4985;49.092;8.542;2022-08-21T08:23:25;99403.59;;;21.62;44.80
9893;BME280;4985;49.092;8.542;2022-08-21T08:25:52;99403.41;;;21.64;44.78
9893;BME280;4985;49.092;8.542;2022-08-21T08:28:19;99401.53;;;21.64;44.79
9893;BME280;4985;49.092;8.542;2022-08-21T08:30:48;99397.00;;;21.65;44.82
9893;BME280;4985;49.092;8.542;2022-08-21T08:33:16;99397.00;;;21.65;44.88
9893;BME280;4985;49.092;8.542;2022-08-21T08:35:45;99394.91;;;21.67;44.59
9893;BME280;4985;49.092;8.542;2022-08-21T08:38:12;99393.03;;;21.67;44.67
9893;BME280;4985;49.092;8.542;2022-08-21T08:40:46;99390.13;;;21.69;44.75
9893;BME280;4985;49.092;8.542;2022-08-21T08:43:14;99392.78;;;21.69;44.78
9893;BME280;4985;49.092;8.542;2022-08-21T08:45:44;99388.00;;;21.71;44.72
9893;BME280;4985;49.092;8.542;2022-08-21T08:48:18;99385.56;;;21.69;44.78
9893;BME280;4985;49.092;8.542;2022-08-21T08:50:55;99384.28;;;21.72;44.75
9893;BME280;4985;49.092;8.542;2022-08-21T08:53:27;99380.56;;;21.73;44.72
9893;BME280;4985;49.092;8.542;2022-08-21T08:55:55;99377.88;;;21.73;44.72
9893;BME280;4985;49.092;8.542;2022-08-21T08:58:25;99377.88;;;21.73;44.69
9893;BME280;4985;49.092;8.542;2022-08-21T09:00:56;99374.97;;;21.74;44.71
9893;BME280;4985;49.092;8.542;2022-08-21T09:03:25;99374.75;;;21.76;44.67
9893;BME280;4985;49.092;8.542;2022-08-21T09:05:56;99369.37;;;21.76;44.74
9893;BME280;4985;49.092;8.542;2022-08-21T09:08:37;99371.84;;;21.77;44.69
9893;BME280;4985;49.092;8.542;2022-08-21T09:11:11;99371.59;;;21.79;44.54
9893;BME280;4985;49.092;8.542;2022-08-21T09:13:48;99372.97;;;21.82;44.48
9893;BME280;4985;49.092;8.542;2022-08-21T09:16:22;99366.81;;;21.81;44.60
9893;BME280;4985;49.092;8.542;2022-08-21T09:18:58;99369.50;;;21.81;44.71
9893;BME280;4985;49.092;8.542;2022-08-21T09:21:36;99354.47;;;21.80;44.70
9893;BME280;4985;49.092;8.542;2022-08-21T09:24:19;99348.06;;;21.81;44.72
9893;BME280;4985;49.092;8.542;2022-08-21T09:26:54;99345.13;;;21.83;44.67
9893;BME280;4985;49.092;8.542;2022-08-21T09:29:27;99344.31;;;21.82;44.73
9893;BME280;4985;49.092;8.542;2022-08-21T09:31:55;99343.84;;;21.85;44.65
9893;BME280;4985;49.092;8.542;2022-08-21T09:34:27;99340.34;;;21.85;44.72
9893;BME280;4985;49.092;8.542;2022-08-21T09:36:54;99344.66;;;21.86;44.67
9893;BME280;4985;49.092;8.542;2022-08-21T09:39:25;99349.56;;;21.89;44.47
9893;BME280;4985;49.092;8.542;2022-08-21T09:41:56;99348.50;;;21.90;44.61
9893;BME280;4985;49.092;8.542;2022-08-21T09:44:25;99345.84;;;21.90;44.60
9893;BME280;4985;49.092;8.542;2022-08-21T09:46:52;99342.34;;;21.89;44.60
9893;BME280;4985;49.092;8.542;2022-08-21T09:49:29;99344.78;;;21.91;44.60
9893;BME280;4985;49.092;8.542;2022-08-21T09:51:57;99337.56;;;21.91;44.63
9893;BME280;4985;49.092;8.542;2022-08-21T09:54:28;99331.16;;;21.92;44.63
9893;BME280;4985;49.092;8.542;2022-08-21T09:56:57;99331.16;;;21.92;44.61
9893;BME280;4985;49.092;8.542;2022-08-21T09:59:43;99325.53;;;21.94;44.56
9893;BME280;4985;49.092;8.542;2022-08-21T10:02:24;99331.16;;;21.92;44.61
9893;BME280;4985;49.092;8.542;2022-08-21T10:04:55;99329.03;;;21.94;44.62
9893;BME280;4985;49.092;8.542;2022-08-21T10:07:25;99323.69;;;21.94;44.58
9893;BME280;4985;49.092;8.542;2022-08-21T10:10:02;99330.66;;;21.95;44.59
9893;BME280;4985;49.092;8.542;2022-08-21T10:12:36;99319.94;;;21.95;44.60
9893;BME280;4985;49.092;8.542;2022-08-21T10:15:11;99322.63;;;21.95;44.55
9893;BME280;4985;49.092;8.542;2022-08-21T10:17:45;99317.63;;;21.99;44.51
9893;BME280;4985;49.092;8.542;2022-08-21T10:20:20;99320.06;;;22.00;44.47
9893;BME280;4985;49.092;8.542;2022-08-21T10:23:01;99319.25;;;22.00;44.50
9893;BME280;4985;49.092;8.542;2022-08-21T10:25:32;99315.53;;;22.01;44.48
9893;BME280;4985;49.092;8.542;2022-08-21T10:28:07;99321.69;;;22.01;44.43
9893;BME280;4985;49.092;8.542;2022-08-21T10:30:41;99312.34;;;22.04;44.36
9893;BME280;4985;49.092;8.542;2022-08-21T10:33:19;99314.78;;;22.05;44.31
9893;BME280;4985;49.092;8.542;2022-08-21T10:35:57;99305.72;;;22.06;44.32
9893;BME280;4985;49.092;8.542;2022-08-21T10:38:45;99302.25;;;22.06;44.32
9893;BME280;4985;49.092;8.542;2022-08-21T10:41:22;99303.41;;;22.10;44.24
9893;BME280;4985;49.092;8.542;2022-08-21T10:43:59;99298.06;;;22.10;44.29
9893;BME280;4985;49.092;8.542;2022-08-21T10:46:40;99299.69;;;22.11;44.20
9893;BME280;4985;49.092;8.542;2022-08-21T10:49:20;99291.41;;;22.13;44.17
9893;BME280;4985;49.092;8.542;2022-08-21T10:51:56;99289.53;;;22.13;44.09
9893;BME280;4985;49.092;8.542;2022-08-21T10:54:35;99291.97;;;22.15;44.16
9893;BME280;4985;49.092;8.542;2022-08-21T10:57:15;99280.91;;;22.11;44.21
9893;BME280;4985;49.092;8.542;2022-08-21T10:59:47;99283.91;;;22.15;44.15
9893;BME280;4985;49.092;8.542;2022-08-21T11:02:19;99282.38;;;22.19;43.80
9893;BME280;4985;49.092;8.542;2022-08-21T11:04:52;99285.06;;;22.19;44.00
9893;BME280;4985;49.092;8.542;2022-08-21T11:07:26;99287.53;;;22.20;44.07
9893;BME280;4985;49.092;8.542;2022-08-21T11:09:57;99281.31;;;22.20;44.07
9893;BME280;4985;49.092;8.542;2022-08-21T11:12:39;99291.84;;;22.21;44.00
9893;BME280;4985;49.092;8.542;2022-08-21T11:15:26;99278.44;;;22.21;44.05
9893;BME280;4985;49.092;8.542;2022-08-21T11:18:01;99281.44;;;22.25;43.96
9893;BME280;4985;49.092;8.542;2022-08-21T11:20:34;99280.38;;;22.26;43.94
9893;BME280;4985;49.092;8.542;2022-08-21T11:23:08;99276.66;;;22.27;43.72
9893;BME280;4985;49.092;8.542;2022-08-21T11:25:40;99280.12;;;22.27;43.84
9893;BME280;4985;49.092;8.542;2022-08-21T11:28:13;99269.75;;;22.31;43.78
9893;BME280;4985;49.092;8.542;2022-08-21T11:30:48;99274.06;;;22.32;43.79
9893;BME280;4985;49.092;8.542;2022-08-21T11:33:31;99275.69;;;22.33;43.46
9893;BME280;4985;49.092;8.542;2022-08-21T11:36:09;99267.41;;;22.34;43.62
9893;BME280;4985;49.092;8.542;2022-08-21T11:38:40;99267.66;;;22.33;43.84
9893;BME280;4985;49.092;8.542;2022-08-21T11:41:23;99255.75;;;22.29;43.52
9893;BME280;4985;49.092;8.542;2022-08-21T11:43:56;99260.75;;;22.37;43.62
9893;BME280;4985;49.092;8.542;2022-08-21T11:46:31;99261.31;;;22.39;43.33
9893;BME280;4985;49.092;8.542;2022-08-21T11:49:27;99252.47;;;22.38;43.66
9893;BME280;4985;49.092;8.542;2022-08-21T11:52:13;99243.34;;;22.40;43.58
9893;BME280;4985;49.092;8.542;2022-08-21T11:54:47;99251.16;;;22.41;43.61
9893;BME280;4985;49.092;8.542;2022-08-21T11:57:18;99247.41;;;22.42;43.46
9893;BME280;4985;49.092;8.542;2022-08-21T11:59:53;99243.72;;;22.43;43.25
9893;BME280;4985;49.092;8.542;2022-08-21T12:02:27;99246.97;;;22.45;43.30
9893;BME280;4985;49.092;8.542;2022-08-21T12:05:02;99233.44;;;22.40;43.54
9893;BME280;4985;49.092;8.542;2022-08-21T12:07:34;99234.13;;;22.47;42.82
9893;BME280;4985;49.092;8.542;2022-08-21T12:10:06;99236.56;;;22.49;42.79
9893;BME280;4985;49.092;8.542;2022-08-21T12:12:34;99236.31;;;22.50;42.74
9893;BME280;4985;49.092;8.542;2022-08-21T12:15:14;99241.44;;;22.52;42.67
9893;BME280;4985;49.092;8.542;2022-08-21T12:17:53;99236.88;;;22.52;42.72
9893;BME280;4985;49.092;8.542;2022-08-21T12:20:27;99225.69;;;22.55;42.80
9893;BME280;4985;49.092;8.542;2022-08-21T12:23:04;99223.00;;;22.55;42.38
9893;BME280;4985;49.092;8.542;2022-08-21T12:25:39;99228.94;;;22.57;42.04
9893;BME280;4985;49.092;8.542;2022-08-21T12:28:08;99224.37;;;22.58;42.32
9893;BME280;4985;49.092;8.542;2022-08-21T12:30:39;99216.06;;;22.59;42.42
9893;BME280;4985;49.092;8.542;2022-08-21T12:33:19;99218.50;;;22.61;41.89
9893;BME280;4985;49.092;8.542;2022-08-21T12:35:47;99212.66;;;22.64;41.74
9893;BME280;4985;49.092;8.542;2022-08-21T12:38:18;99210.56;;;22.66;41.68
9893;BME280;4985;49.092;8.542;2022-08-21T12:40:50;99210.31;;;22.67;41.90
9893;BME280;4985;49.092;8.542;2022-08-21T12:43:21;99203.88;;;22.69;41.80
9893;BME280;4985;49.092;8.542;2022-08-21T12:45:51;99208.75;;;22.72;41.61
9893;BME280;4985;49.092;8.542;2022-08-21T12:48:21;99203.97;;;22.74;41.71
9893;BME280;4985;49.092;8.542;2022-08-21T12:50:51;99201.84;;;22.76;42.03
9893;BME280;4985;49.092;8.542;2022-08-21T12:53:27;99199.75;;;22.78;41.72
9893;BME280;4985;49.092;8.542;2022-08-21T12:55:57;99199.50;;;22.79;41.49
9893;BME280;4985;49.092;8.542;2022-08-21T12:58:29;99203.81;;;22.80;41.39
9893;BME280;4985;49.092;8.542;2022-08-21T13:00:59;99193.63;;;22.82;41.34
9893;BME280;4985;49.092;8.542;2022-08-21T13:03:28;99193.41;;;22.84;41.25
9893;BME280;4985;49.092;8.542;2022-08-21T13:05:57;99192.09;;;22.86;41.21
9893;BME280;4985;49.092;8.542;2022-08-21T13:08:26;99195.59;;;22.87;41.28
9893;BME280;4985;49.092;8.542;2022-08-21T13:10:59;99191.03;;;22.87;41.52
9893;BME280;4985;49.092;8.542;2022-08-21T13:13:27;99196.75;;;22.91;41.41
9893;BME280;4985;49.092;8.542;2022-08-21T13:15:59;99196.75;;;22.91;41.37
9893;BME280;4985;49.092;8.542;2022-08-21T13:18:29;99201.63;;;22.94;41.20
9893;BME280;4985;49.092;8.542;2022-08-21T13:21:05;99194.63;;;22.93;41.14
9893;BME280;4985;49.092;8.542;2022-08-21T13:23:32;99203.56;;;22.99;41.17
9893;BME280;4985;49.092;8.542;2022-08-21T13:26:01;99202.28;;;23.01;41.30
9893;BME280;4985;49.092;8.542;2022-08-21T13:28:37;99195.84;;;23.02;41.09
9893;BME280;4985;49.092;8.542;2022-08-21T13:31:07;99192.91;;;23.04;41.13
9893;BME280;4985;49.092;8.542;2022-08-21T13:33:37;99189.16;;;23.05;40.87
9893;BME280;4985;49.092;8.542;2022-08-21T13:36:09;99194.28;;;23.06;40.77